Time;durP1;ratioP1;P1;durP2;ratioP2;P2;SDS_P1;SDS_P2;PMS_P1;PMS_P2;Temp;Humidity;BMP_temperature;BMP_pressure;BME280_temperature;BME280_humidity;BME280_pressure;Samples;Min_cycle;Max_cycle;Signal;HPM_P1;HPM_P2
2021/12/21 00:00:01;;;;;;;3.97;3.00;;;-1.90;99.90;;;;;;5055939;28;20383;-91
2021/12/21 00:02:26;;;;;;;13.02;6.47;;;-1.90;99.90;;;;;;5055749;28;20392;-91
2021/12/21 00:04:52;;;;;;;7.22;3.78;;;-1.80;99.90;;;;;;5055783;28;20064;-91
2021/12/21 00:07:18;;;;;;;7.88;3.95;;;-1.80;99.90;;;;;;5043933;28;20032;-91
2021/12/21 00:09:44;;;;;;;4.68;3.40;;;-1.80;99.90;;;;;;5059153;28;20048;-90
2021/12/21 00:12:13;;;;;;;4.20;3.38;;;-1.80;99.90;;;;;;5042619;28;20029;-91
2021/12/21 00:14:59;;;;;;;4.65;3.17;;;-1.90;99.90;;;;;;5075128;28;20036;-92
2021/12/21 00:25:17;;;;;;;6.60;3.90;;;-1.90;99.90;;;;;;5056786;28;20062;-92
2021/12/21 00:27:46;;;;;;;6.13;3.30;;;-1.90;99.90;;;;;;5039291;28;20063;-92
2021/12/21 00:30:13;;;;;;;4.70;3.88;;;-2.00;99.90;;;;;;5055598;28;20487;-91
2021/12/21 00:32:39;;;;;;;4.82;3.10;;;-2.10;99.90;;;;;;5055121;28;20047;-91
2021/12/21 00:35:05;;;;;;;8.63;4.63;;;-2.10;99.90;;;;;;5055409;28;20467;-91
2021/12/21 00:37:31;;;;;;;6.38;3.85;;;-2.10;99.90;;;;;;5054936;28;20064;-92
2021/12/21 00:39:57;;;;;;;7.78;4.65;;;-2.10;99.90;;;;;;5056761;28;20102;-91
2021/12/21 00:42:24;;;;;;;14.32;6.20;;;-2.20;99.90;;;;;;5055941;28;20099;-91
2021/12/21 00:44:49;;;;;;;9.30;3.72;;;-2.20;99.90;;;;;;5038801;28;20025;-90
2021/12/21 00:47:16;;;;;;;5.40;3.08;;;-2.20;99.90;;;;;;5038441;28;20029;-90
2021/12/21 00:49:48;;;;;;;3.90;2.67;;;-2.20;99.90;;;;;;5056538;28;20031;-90
2021/12/21 00:52:15;;;;;;;4.15;2.67;;;-2.30;99.90;;;;;;5038812;28;20021;-91
2021/12/21 00:54:41;;;;;;;4.38;3.08;;;-2.30;99.90;;;;;;5056075;28;20029;-90
2021/12/21 00:57:09;;;;;;;3.53;2.88;;;-2.30;99.90;;;;;;5038619;28;20057;-90
2021/12/21 00:59:34;;;;;;;5.63;2.55;;;-2.30;99.90;;;;;;5056531;28;20028;-91
2021/12/21 01:02:01;;;;;;;4.47;3.20;;;-2.40;99.90;;;;;;5057755;28;20021;-91
2021/12/21 01:04:34;;;;;;;4.97;3.40;;;-2.40;99.90;;;;;;5057913;28;20028;-90
2021/12/21 01:07:06;;;;;;;3.08;2.70;;;-2.40;99.90;;;;;;5058381;28;20467;-91
2021/12/21 01:10:03;;;;;;;5.82;3.38;;;-2.40;99.90;;;;;;5075978;28;20024;-91
2021/12/21 01:12:37;;;;;;;3.97;3.10;;;-2.40;99.90;;;;;;5073310;28;20498;-91
2021/12/21 01:15:21;;;;;;;5.53;3.33;;;-2.30;99.90;;;;;;5038100;28;20029;-91
2021/12/21 01:18:35;;;;;;;4.30;2.53;;;-2.40;99.90;;;;;;5055693;28;20036;-91
2021/12/21 01:28:35;;;;;;;7.78;4.50;;;-2.40;99.90;;;;;;5055124;28;20099;-91
2021/12/21 01:36:15;;;;;;;9.30;5.35;;;-2.30;99.90;;;;;;5039737;28;20064;-91
2021/12/21 01:38:56;;;;;;;7.88;5.13;;;-2.30;99.90;;;;;;5037517;28;20115;-91
2021/12/21 01:41:34;;;;;;;9.32;5.63;;;-2.40;99.90;;;;;;5022969;28;20143;-90
2021/12/21 01:44:32;;;;;;;9.02;4.97;;;-2.40;99.90;;;;;;5037345;28;20364;-91
2021/12/21 01:49:42;;;;;;;7.50;4.72;;;-2.40;99.90;;;;;;5055260;28;20530;-91
2021/12/21 01:52:13;;;;;;;16.27;5.47;;;-2.50;99.90;;;;;;5037289;28;20025;-91
2021/12/21 01:54:46;;;;;;;10.52;5.82;;;-2.50;99.90;;;;;;5057620;28;20364;-92
2021/12/21 01:57:12;;;;;;;7.78;5.10;;;-2.40;99.90;;;;;;5040878;28;20070;-91
2021/12/21 01:59:41;;;;;;;8.30;5.13;;;-2.40;99.90;;;;;;5024259;28;20463;-91
2021/12/21 02:02:08;;;;;;;7.90;4.82;;;-2.60;99.90;;;;;;5040888;28;20024;-91
2021/12/21 02:04:36;;;;;;;8.48;5.30;;;-2.70;99.90;;;;;;5056600;28;20421;-91
2021/12/21 02:07:02;;;;;;;7.63;5.72;;;-2.70;99.90;;;;;;5040514;28;20210;-92
2021/12/21 02:09:37;;;;;;;8.20;5.18;;;-2.70;99.90;;;;;;5055820;28;20027;-91
2021/12/21 02:12:07;;;;;;;10.05;5.47;;;-2.70;99.90;;;;;;5041527;28;20043;-92
2021/12/21 02:14:35;;;;;;;9.25;5.55;;;-2.70;99.90;;;;;;5074131;28;20036;-92
2021/12/21 02:19:59;;;;;;;10.30;5.30;;;-2.70;99.90;;;;;;5023897;28;20033;-92
2021/12/21 02:22:27;;;;;;;8.27;5.20;;;-2.80;99.90;;;;;;5056969;28;20486;-91
2021/12/21 02:27:43;;;;;;;8.48;4.93;;;-2.80;99.90;;;;;;5031103;28;20041;-91
2021/12/21 02:30:14;;;;;;;7.72;4.82;;;-2.80;99.90;;;;;;5036949;28;20083;-94
2021/12/21 02:32:40;;;;;;;7.68;4.80;;;-2.80;99.90;;;;;;5036863;28;20468;-92
2021/12/21 02:35:07;;;;;;;7.18;5.00;;;-2.90;99.90;;;;;;5036618;28;20021;-92
2021/12/21 02:37:33;;;;;;;6.57;4.57;;;-2.90;99.90;;;;;;5036405;28;20479;-92
2021/12/21 02:39:58;;;;;;;9.13;4.70;;;-2.90;99.90;;;;;;5037064;28;20051;-92
2021/12/21 02:42:24;;;;;;;6.97;4.90;;;-2.90;99.90;;;;;;5043742;28;20064;-92
2021/12/21 02:44:53;;;;;;;6.93;4.90;;;-2.90;99.90;;;;;;5053186;28;20029;-91
2021/12/21 02:47:19;;;;;;;5.90;4.73;;;-3.00;99.90;;;;;;5054423;28;20021;-91
2021/12/21 02:49:45;;;;;;;7.28;5.00;;;-3.00;99.90;;;;;;5052854;28;20029;-91
2021/12/21 02:52:11;;;;;;;8.80;5.45;;;-3.10;99.90;;;;;;5036643;28;20068;-91
2021/12/21 02:54:37;;;;;;;8.15;5.80;;;-3.10;99.90;;;;;;5054050;28;20562;-91
2021/12/21 02:57:03;;;;;;;7.78;5.13;;;-3.10;99.90;;;;;;5053435;28;20115;-92
2021/12/21 02:59:30;;;;;;;6.65;5.00;;;-3.10;99.90;;;;;;5053407;28;20029;-91
2021/12/21 03:01:56;;;;;;;6.30;4.53;;;-3.00;99.90;;;;;;5082625;28;20021;-91
2021/12/21 03:04:21;;;;;;;8.20;5.63;;;-3.00;99.90;;;;;;5093555;28;20020;-92
2021/12/21 03:14:48;;;;;;;5.80;4.22;;;-3.10;99.90;;;;;;5054042;28;20021;-92
2021/12/21 03:17:15;;;;;;;6.88;4.88;;;-3.10;99.90;;;;;;5089697;28;20059;-92
2021/12/21 03:19:41;;;;;;;9.35;5.95;;;-3.10;99.90;;;;;;5094681;28;20027;-91
2021/12/21 03:22:09;;;;;;;15.65;7.07;;;-3.10;99.90;;;;;;5093927;28;20028;-92
2021/12/21 03:24:36;;;;;;;6.72;4.53;;;-3.10;99.90;;;;;;5088461;28;20040;-92
2021/12/21 03:27:03;;;;;;;7.03;4.85;;;-3.10;99.90;;;;;;5072449;28;20024;-91
2021/12/21 03:29:29;;;;;;;7.07;4.70;;;-3.10;99.90;;;;;;5073906;28;20031;-92
2021/12/21 03:31:56;;;;;;;4.85;3.10;;;-3.10;99.90;;;;;;5060196;28;20067;-92
2021/12/21 03:34:22;;;;;;;3.03;2.58;;;-3.10;99.90;;;;;;5072394;28;20037;-92
2021/12/21 03:36:48;;;;;;;3.22;2.83;;;-3.20;99.90;;;;;;5072473;28;20099;-92
2021/12/21 03:39:18;;;;;;;2.88;2.55;;;-3.30;99.90;;;;;;5072653;28;20172;-92
2021/12/21 03:41:49;;;;;;;3.65;2.40;;;-3.40;99.90;;;;;;5064831;28;20508;-93
2021/12/21 03:44:17;;;;;;;2.80;2.45;;;-3.40;99.90;;;;;;5035977;28;20071;-92
2021/12/21 03:46:49;;;;;;;2.28;2.03;;;-3.50;99.90;;;;;;5036752;28;20029;-92
2021/12/21 03:52:03;;;;;;;3.38;2.42;;;-3.50;99.90;;;;;;5018747;28;20021;-92
2021/12/21 03:54:29;;;;;;;4.50;2.50;;;-3.60;99.90;;;;;;5019382;28;20032;-92
2021/12/21 03:56:55;;;;;;;4.38;2.40;;;-3.70;99.90;;;;;;5024705;28;20396;-92
2021/12/21 03:59:21;;;;;;;3.45;2.53;;;-3.70;99.90;;;;;;5007092;28;20040;-92
2021/12/21 04:01:50;;;;;;;2.80;2.20;;;-3.80;99.90;;;;;;5039836;28;20028;-95
2021/12/21 04:04:18;;;;;;;3.15;2.70;;;-3.80;99.90;;;;;;5039379;28;20021;-90
2021/12/21 04:06:44;;;;;;;3.75;2.55;;;-3.80;99.90;;;;;;5039574;28;20025;-90
2021/12/21 04:09:10;;;;;;;2.97;2.50;;;-3.90;99.90;;;;;;5056888;28;20048;-91
2021/12/21 04:11:36;;;;;;;2.65;2.45;;;-4.00;99.90;;;;;;5056122;28;20028;-90
2021/12/21 04:14:02;;;;;;;2.78;2.53;;;-3.90;99.90;;;;;;5039251;28;20162;-91
2021/12/21 04:16:28;;;;;;;3.08;2.10;;;-4.00;99.90;;;;;;5039048;28;20475;-90
2021/12/21 04:18:54;;;;;;;2.60;2.20;;;-4.00;99.90;;;;;;5039413;28;20035;-90
2021/12/21 04:21:21;;;;;;;2.60;2.40;;;-4.00;99.90;;;;;;5038022;28;20385;-91
2021/12/21 04:23:47;;;;;;;4.13;2.50;;;-4.10;99.90;;;;;;5021693;28;20424;-90
2021/12/21 04:26:15;;;;;;;2.05;1.85;;;-4.20;99.90;;;;;;5018902;28;20047;-89
2021/12/21 04:28:43;;;;;;;2.40;2.03;;;-4.20;99.90;;;;;;5018687;28;20021;-89
2021/12/21 04:31:11;;;;;;;2.58;2.38;;;-4.20;99.90;;;;;;5047012;28;20017;-90
2021/12/21 04:33:42;;;;;;;5.43;2.20;;;-4.20;99.90;;;;;;5018939;28;20044;-89
2021/12/21 04:36:09;;;;;;;2.88;2.35;;;-4.30;99.90;;;;;;5040729;28;20085;-90
2021/12/21 04:38:39;;;;;;;3.55;2.72;;;-4.30;99.90;;;;;;5058885;28;20455;-90
2021/12/21 04:41:15;;;;;;;2.40;2.20;;;-4.50;99.90;;;;;;5058840;28;20581;-90
2021/12/21 04:43:57;;;;;;;3.42;2.42;;;-4.50;99.90;;;;;;5094416;28;20042;-89
2021/12/21 04:46:24;;;;;;;2.53;1.88;;;-4.50;99.90;;;;;;5078114;28;20081;-88
2021/12/21 04:48:51;;;;;;;2.60;2.20;;;-4.40;99.90;;;;;;5080810;28;20098;-89
2021/12/21 04:51:17;;;;;;;3.40;2.22;;;-4.40;99.90;;;;;;5058309;28;20024;-87
2021/12/21 04:53:42;;;;;;;2.55;2.05;;;-4.40;99.90;;;;;;5058264;28;20024;-89
2021/12/21 04:56:10;;;;;;;4.10;2.90;;;-4.40;99.90;;;;;;5076897;28;20084;-88
2021/12/21 04:58:36;;;;;;;2.65;2.20;;;-4.40;99.90;;;;;;5057927;28;20383;-88
2021/12/21 05:01:02;;;;;;;2.03;1.92;;;-4.40;99.90;;;;;;5075549;28;20024;-89
2021/12/21 05:03:28;;;;;;;3.92;2.40;;;-4.50;99.90;;;;;;5057532;28;20029;-92
2021/12/21 05:05:53;;;;;;;3.05;2.03;;;-4.50;99.90;;;;;;5041388;28;20025;-91
2021/12/21 05:08:23;;;;;;;2.85;2.00;;;-4.50;99.90;;;;;;5042303;28;20025;-92
2021/12/21 05:10:54;;;;;;;2.75;1.92;;;-4.60;99.90;;;;;;5058165;28;20056;-91
2021/12/21 05:13:25;;;;;;;4.95;2.53;;;-4.50;99.90;;;;;;5076076;28;20036;-91
2021/12/21 05:15:51;;;;;;;6.20;3.63;;;-4.50;99.90;;;;;;5041880;28;20029;-91
2021/12/21 05:18:20;;;;;;;6.47;3.20;;;-4.40;99.90;;;;;;5075645;28;20467;-91
2021/12/21 05:20:47;;;;;;;6.90;3.25;;;-4.40;99.90;;;;;;5079972;28;20025;-92
2021/12/21 05:23:15;;;;;;;3.25;2.42;;;-4.30;99.90;;;;;;5058210;28;20449;-91
2021/12/21 05:25:41;;;;;;;8.40;4.22;;;-4.40;99.90;;;;;;5058526;28;20379;-91
2021/12/21 05:28:09;;;;;;;4.55;2.38;;;-4.50;99.90;;;;;;5058129;28;20024;-92
2021/12/21 05:30:36;;;;;;;4.30;2.85;;;-4.40;99.90;;;;;;5057799;28;20025;-91
2021/12/21 05:33:03;;;;;;;2.88;2.30;;;-4.30;99.90;;;;;;5057600;28;20063;-92
2021/12/21 05:35:29;;;;;;;10.93;4.40;;;-4.40;99.90;;;;;;5057693;28;20074;-94
2021/12/21 05:37:59;;;;;;;5.25;2.95;;;-4.50;99.90;;;;;;5057242;28;20025;-92
2021/12/21 05:40:33;;;;;;;5.13;2.90;;;-4.50;99.90;;;;;;5057817;28;20041;-90
2021/12/21 05:43:00;;;;;;;9.82;4.63;;;-4.60;99.90;;;;;;5043045;28;20049;-95
2021/12/21 05:45:26;;;;;;;9.77;5.18;;;-4.50;99.90;;;;;;5038149;28;20017;-94
2021/12/21 05:47:52;;;;;;;10.50;5.22;;;-4.50;99.90;;;;;;5037758;28;20455;-95
2021/12/21 05:50:19;;;;;;;13.10;6.60;;;-4.50;99.90;;;;;;5037844;28;20092;-94
2021/12/21 05:52:46;;;;;;;12.35;5.90;;;-4.60;99.90;;;;;;5038022;28;20025;-94
2021/12/21 05:55:12;;;;;;;12.15;5.57;;;-4.60;99.90;;;;;;5037500;28;20033;-95
2021/12/21 05:57:39;;;;;;;4.32;2.85;;;-4.60;99.90;;;;;;5021369;28;20475;-93
2021/12/21 06:00:13;;;;;;;10.55;5.47;;;-4.60;99.90;;;;;;5038622;28;20037;-94
2021/12/21 06:02:40;;;;;;;9.73;5.00;;;-4.50;99.90;;;;;;5006921;28;20040;-93
2021/12/21 06:08:57;;;;;;;6.00;4.30;;;-4.40;99.90;;;;;;4994657;28;20157;-93
2021/12/21 06:11:23;;;;;;;5.60;3.50;;;-4.40;99.90;;;;;;5017573;28;20030;-93
2021/12/21 06:25:23;;;;;;;6.18;4.30;;;-4.50;99.90;;;;;;5021647;28;20087;-93
2021/12/21 06:27:37;;;;;;;6.68;3.70;;;-4.50;99.90;;;;;;5034694;28;20018;-93
2021/12/21 06:30:04;;;;;;;10.10;4.88;;;-4.50;99.90;;;;;;5016855;28;20395;-93
2021/12/21 06:32:29;;;;;;;8.43;4.95;;;-4.50;99.90;;;;;;5016806;28;20112;-93
2021/12/21 06:34:55;;;;;;;12.02;6.97;;;-4.40;99.90;;;;;;5018220;28;20068;-93
2021/12/21 06:37:22;;;;;;;18.30;7.57;;;-4.40;99.90;;;;;;5035668;28;20049;-94
2021/12/21 06:39:48;;;;;;;15.73;9.65;;;-4.40;99.90;;;;;;5001839;28;20040;-92
2021/12/21 06:42:15;;;;;;;30.42;15.70;;;-4.40;99.90;;;;;;5016849;28;20058;-93
2021/12/21 06:44:43;;;;;;;18.35;9.98;;;-4.30;99.90;;;;;;4985241;28;20053;-93
2021/12/21 06:52:57;;;;;;;9.68;5.32;;;-4.30;99.90;;;;;;5032245;28;20036;-93
2021/12/21 06:55:23;;;;;;;6.53;3.88;;;-4.30;99.90;;;;;;5001231;28;20030;-92
2021/12/21 06:57:49;;;;;;;9.32;5.57;;;-4.40;99.90;;;;;;5017499;28;20029;-93
2021/12/21 07:00:16;;;;;;;15.20;7.95;;;-4.30;99.90;;;;;;5017082;28;20032;-93
2021/12/21 07:02:43;;;;;;;8.60;4.90;;;-4.30;99.90;;;;;;5035255;28;20025;-93
2021/12/21 07:05:10;;;;;;;9.95;6.38;;;-4.40;99.90;;;;;;5016351;28;20037;-93
2021/12/21 07:07:36;;;;;;;7.50;3.92;;;-4.40;99.90;;;;;;5000467;28;20041;-91
2021/12/21 07:10:08;;;;;;;21.13;11.02;;;-4.30;99.90;;;;;;5006248;28;20034;-93
2021/12/21 07:18:10;;;;;;;11.15;6.60;;;-4.30;99.90;;;;;;5038562;28;20056;-93
2021/12/21 07:20:38;;;;;;;15.52;7.60;;;-4.20;99.90;;;;;;5022742;28;20490;-93
2021/12/21 07:23:04;;;;;;;33.58;16.50;;;-4.20;99.90;;;;;;5021907;28;20025;-93
2021/12/21 07:25:30;;;;;;;13.80;6.75;;;-4.10;99.90;;;;;;5005305;28;20030;-93
2021/12/21 07:27:57;;;;;;;8.63;5.80;;;-4.10;99.90;;;;;;5021119;28;20021;-94
2021/12/21 07:30:22;;;;;;;14.40;7.57;;;-4.20;99.90;;;;;;5021433;28;20029;-94
2021/12/21 07:32:50;;;;;;;20.80;8.15;;;-4.10;99.90;;;;;;5006967;28;20033;-93
2021/12/21 07:35:16;;;;;;;22.23;11.85;;;-4.10;99.90;;;;;;5023327;28;20120;-94
2021/12/21 07:37:43;;;;;;;29.52;16.73;;;-4.40;99.90;;;;;;5041363;28;20025;-93
2021/12/21 07:40:10;;;;;;;15.07;8.93;;;-4.40;99.90;;;;;;5024674;28;20094;-94
2021/12/21 07:42:36;;;;;;;25.08;12.13;;;-4.50;99.90;;;;;;5023454;28;20049;-92
2021/12/21 07:45:02;;;;;;;20.67;10.35;;;-4.50;99.90;;;;;;5022802;28;20040;-94
2021/12/21 07:47:28;;;;;;;60.90;22.95;;;-4.60;99.90;;;;;;5040819;28;20025;-92
2021/12/21 07:49:54;;;;;;;38.03;15.38;;;-4.70;99.90;;;;;;5021438;28;20017;-93
2021/12/21 07:52:20;;;;;;;41.60;19.70;;;-4.60;99.90;;;;;;5023844;28;20120;-95
2021/12/21 07:54:47;;;;;;;28.17;12.40;;;-4.60;99.90;;;;;;4991015;28;20044;-94
2021/12/21 07:57:13;;;;;;;14.85;7.72;;;-4.60;99.90;;;;;;5022356;28;20030;-92
2021/12/21 07:59:40;;;;;;;9.57;5.97;;;-4.50;99.90;;;;;;5022511;28;20097;-93
2021/12/21 08:02:07;;;;;;;17.50;8.35;;;-4.50;99.90;;;;;;5022281;28;20033;-96
2021/12/21 08:04:36;;;;;;;8.73;6.30;;;-4.60;99.90;;;;;;5022503;28;20021;-94
2021/12/21 08:07:12;;;;;;;9.70;6.65;;;-4.70;99.90;;;;;;5005338;28;20030;-91
2021/12/21 08:09:46;;;;;;;12.45;6.95;;;-4.60;99.90;;;;;;5037633;28;20017;-92
2021/12/21 08:12:17;;;;;;;9.43;4.65;;;-4.60;99.90;;;;;;5020327;28;20035;-93
2021/12/21 08:14:44;;;;;;;8.25;4.88;;;-4.60;99.90;;;;;;5037568;28;20029;-92
2021/12/21 08:17:10;;;;;;;13.95;7.55;;;-4.60;99.90;;;;;;5019660;28;20029;-93
2021/12/21 08:19:38;;;;;;;26.08;11.38;;;-4.70;99.90;;;;;;5037618;28;20033;-93
2021/12/21 08:22:04;;;;;;;21.08;10.15;;;-4.70;99.90;;;;;;5020194;28;20026;-92
2021/12/21 08:24:33;;;;;;;8.18;5.75;;;-4.70;99.90;;;;;;5019883;28;20160;-92
2021/12/21 08:27:00;;;;;;;8.43;4.63;;;-4.50;99.90;;;;;;5019696;28;20021;-92
2021/12/21 08:29:29;;;;;;;22.70;13.18;;;-4.60;99.90;;;;;;5019499;28;20079;-92
2021/12/21 08:31:55;;;;;;;21.70;11.80;;;-4.60;99.90;;;;;;5002217;28;20033;-94
2021/12/21 08:34:21;;;;;;;6.18;3.97;;;-4.50;99.90;;;;;;5020409;28;20105;-93
2021/12/21 08:36:49;;;;;;;8.00;4.57;;;-4.60;99.90;;;;;;5036782;28;20025;-92
2021/12/21 08:39:18;;;;;;;24.70;13.27;;;-4.50;99.90;;;;;;5020564;28;20439;-92
2021/12/21 08:41:45;;;;;;;15.30;9.32;;;-4.80;99.90;;;;;;5019603;28;20045;-91
2021/12/21 08:44:12;;;;;;;15.77;9.27;;;-4.70;99.90;;;;;;5019945;28;20017;-92
2021/12/21 08:46:41;;;;;;;9.65;5.57;;;-4.80;99.90;;;;;;5005791;28;20488;-93
2021/12/21 08:49:07;;;;;;;14.98;7.50;;;-5.00;99.90;;;;;;5003417;28;20034;-92
2021/12/21 08:51:33;;;;;;;17.25;7.65;;;-5.00;99.90;;;;;;5018969;28;20028;-92
2021/12/21 08:53:59;;;;;;;12.82;6.22;;;-4.90;99.90;;;;;;5019129;28;20139;-92
2021/12/21 08:56:25;;;;;;;25.13;10.75;;;-4.80;99.90;;;;;;5018680;28;20021;-92
2021/12/21 08:58:51;;;;;;;24.13;12.43;;;-4.60;99.90;;;;;;5018802;28;20472;-92
2021/12/21 09:01:17;;;;;;;22.75;9.23;;;-4.90;99.90;;;;;;5019207;28;20030;-92
2021/12/21 09:03:44;;;;;;;62.75;19.73;;;-4.80;99.90;;;;;;5002553;28;20468;-90
2021/12/21 09:06:09;;;;;;;19.65;10.90;;;-4.70;99.90;;;;;;5018138;28;20063;-92
2021/12/21 09:08:35;;;;;;;17.60;7.28;;;-4.70;99.90;;;;;;5002137;28;20053;-91
2021/12/21 09:11:05;;;;;;;10.45;5.65;;;-4.70;99.90;;;;;;5002215;28;20030;-91
2021/12/21 09:13:32;;;;;;;7.00;4.68;;;-4.70;99.90;;;;;;5018519;28;20029;-91
2021/12/21 09:15:59;;;;;;;6.97;4.30;;;-4.90;99.90;;;;;;5018285;28;20035;-91
2021/12/21 09:18:25;;;;;;;7.13;4.32;;;-4.90;99.90;;;;;;5001655;28;20086;-91
2021/12/21 09:20:50;;;;;;;6.07;4.35;;;-4.90;99.90;;;;;;5019523;28;20120;-91
2021/12/21 09:23:17;;;;;;;6.70;4.68;;;-4.80;99.90;;;;;;5001685;28;20033;-91
2021/12/21 09:25:44;;;;;;;35.38;6.60;;;-4.80;99.90;;;;;;5018277;28;20017;-91
2021/12/21 09:28:10;;;;;;;6.85;5.28;;;-4.90;99.90;;;;;;5002319;28;20476;-91
2021/12/21 09:30:37;;;;;;;5.30;3.85;;;-5.00;99.90;;;;;;5018158;28;20029;-92
2021/12/21 09:33:04;;;;;;;7.13;3.97;;;-5.00;99.90;;;;;;5018678;28;20037;-91
2021/12/21 09:35:31;;;;;;;8.02;5.05;;;-4.90;99.90;;;;;;5001011;28;20033;-91
2021/12/21 09:37:57;;;;;;;8.55;5.45;;;-4.90;99.90;;;;;;5017963;28;20026;-91
2021/12/21 09:40:28;;;;;;;14.25;8.13;;;-4.80;99.90;;;;;;4985384;28;20040;-91
2021/12/21 09:42:54;;;;;;;12.75;8.45;;;-4.70;99.90;;;;;;5017535;28;20049;-91
2021/12/21 09:45:21;;;;;;;31.27;8.63;;;-4.60;99.90;;;;;;5001657;28;20056;-91
2021/12/21 09:47:51;;;;;;;135.13;42.40;;;-4.50;99.90;;;;;;5019665;28;20064;-91
2021/12/21 09:50:20;;;;;;;;;;;-4.40;99.90;;;;;;5038580;28;20472;-92
2021/12/21 09:52:48;;;;;;;42.75;15.50;;;-4.30;99.90;;;;;;5037769;28;19905;-93
2021/12/21 09:55:16;;;;;;;32.92;11.55;;;-4.70;99.90;;;;;;5002769;28;20083;-92
2021/12/21 09:57:41;;;;;;;19.17;8.13;;;-5.10;99.90;;;;;;5017690;28;20029;-91
2021/12/21 10:00:15;;;;;;;23.80;7.03;;;-5.10;99.90;;;;;;5036138;28;20036;-91
2021/12/21 10:02:41;;;;;;;9.55;6.15;;;-5.20;99.90;;;;;;5019943;28;20036;-91
2021/12/21 10:05:10;;;;;;;8.85;5.53;;;-5.20;99.90;;;;;;5001261;28;20388;-90
2021/12/21 10:07:37;;;;;;;9.52;5.05;;;-5.20;99.90;;;;;;5034902;28;20472;-91
2021/12/21 10:10:10;;;;;;;9.68;5.90;;;-5.30;99.90;;;;;;5017113;28;20116;-92
2021/12/21 10:12:39;;;;;;;13.45;8.15;;;-5.30;99.90;;;;;;5017906;28;20095;-92
2021/12/21 10:15:10;;;;;;;24.35;7.07;;;-5.20;99.90;;;;;;5017522;28;20099;-91
2021/12/21 10:17:36;;;;;;;;;;;-5.20;99.90;;;;;;5018678;28;20040;-93
2021/12/21 10:20:08;;;;;;;10.43;5.72;;;-5.10;99.90;;;;;;5019210;28;19916;-91
2021/12/21 10:22:35;;;;;;;6.90;4.68;;;-5.10;99.90;;;;;;5018120;28;20071;-90
2021/12/21 10:25:01;;;;;;;9.50;5.40;;;-5.20;99.90;;;;;;5017061;28;20022;-91
2021/12/21 10:27:29;;;;;;;9.02;4.97;;;-5.20;99.90;;;;;;5017438;28;20080;-91
2021/12/21 10:29:59;;;;;;;12.07;7.28;;;-5.20;99.90;;;;;;5017217;28;20053;-90
2021/12/21 10:32:31;;;;;;;9.32;5.38;;;-5.40;99.90;;;;;;5017147;28;20053;-90
2021/12/21 10:34:56;;;;;;;27.13;10.38;;;-5.40;99.90;;;;;;5017233;28;20052;-91
2021/12/21 10:37:27;;;;;;;61.67;7.88;;;-5.10;99.90;;;;;;5034911;28;20034;-91
2021/12/21 10:40:33;;;;;;;8.43;5.20;;;-5.20;99.90;;;;;;5017243;28;20025;-90
2021/12/21 10:43:10;;;;;;;9.80;4.22;;;-5.30;99.90;;;;;;5029058;28;20064;-91
2021/12/21 10:45:39;;;;;;;11.93;4.82;;;-5.40;99.90;;;;;;5033650;28;20040;-93
2021/12/21 10:48:09;;;;;;;13.18;7.72;;;-5.70;99.90;;;;;;5036852;28;20075;-91
2021/12/21 10:50:36;;;;;;;10.90;7.55;;;-5.80;99.90;;;;;;5054265;28;20131;-93
2021/12/21 10:53:03;;;;;;;11.85;7.20;;;-5.80;99.40;;;;;;5036903;28;20033;-91
2021/12/21 10:55:36;;;;;;;12.93;7.00;;;-5.70;99.30;;;;;;5054239;28;20029;-92
2021/12/21 10:58:06;;;;;;;6.25;3.33;;;-5.80;98.80;;;;;;5037169;28;20569;-92
2021/12/21 11:00:33;;;;;;;6.10;4.85;;;-5.70;98.40;;;;;;5024450;28;20037;-93
2021/12/21 11:02:59;;;;;;;9.27;3.88;;;-5.70;95.80;;;;;;5040724;28;20090;-93
2021/12/21 11:05:26;;;;;;;9.48;5.53;;;-6.00;93.80;;;;;;5040842;28;20025;-91
2021/12/21 11:08:01;;;;;;;14.65;5.18;;;-6.10;94.90;;;;;;5040434;28;20029;-90
2021/12/21 11:10:32;;;;;;;9.90;4.13;;;-6.10;95.00;;;;;;5041007;28;20523;-91
2021/12/21 11:13:08;;;;;;;5.85;3.10;;;-6.10;95.20;;;;;;5024363;28;20033;-90
2021/12/21 11:15:39;;;;;;;6.00;3.05;;;-6.20;94.40;;;;;;5040366;28;20387;-89
2021/12/21 11:18:07;;;;;;;;;;;-6.40;95.30;;;;;;5040833;28;20065;-89
2021/12/21 11:20:35;;;;;;;12.82;7.28;;;-6.40;96.20;;;;;;5040628;28;19908;-89
2021/12/21 11:23:03;;;;;;;13.52;8.40;;;-6.30;96.60;;;;;;5040695;28;20104;-90
2021/12/21 11:25:30;;;;;;;17.88;8.75;;;-6.30;96.30;;;;;;5040348;28;20095;-90
2021/12/21 11:27:57;;;;;;;30.23;9.82;;;-6.10;96.70;;;;;;5040047;28;20383;-92
2021/12/21 11:30:26;;;;;;;10.90;6.15;;;-5.90;99.70;;;;;;5023389;28;20032;-90
2021/12/21 11:32:53;;;;;;;9.48;5.20;;;-5.90;96.70;;;;;;5040832;28;20032;-92
2021/12/21 11:37:52;;;;;;;9.05;5.60;;;-5.70;95.80;;;;;;5057523;28;20494;-90
2021/12/21 11:40:23;;;;;;;34.42;4.97;;;-5.70;95.70;;;;;;5040623;28;20471;-93
2021/12/21 11:42:52;;;;;;;16.73;6.43;;;-6.00;93.90;;;;;;5057464;28;20049;-92
2021/12/21 11:45:46;;;;;;;13.43;5.63;;;-6.20;93.40;;;;;;5039859;28;20029;-92
2021/12/21 11:48:39;;;;;;;10.32;5.95;;;-6.20;93.50;;;;;;5039990;28;20051;-92
2021/12/21 11:51:09;;;;;;;7.15;3.58;;;-6.40;93.10;;;;;;5047068;28;20509;-92
2021/12/21 11:53:35;;;;;;;7.67;4.30;;;-6.30;93.90;;;;;;5040119;28;20067;-92
2021/12/21 11:56:03;;;;;;;5.60;3.90;;;-6.30;93.00;;;;;;5040803;28;20036;-91
2021/12/21 11:58:32;;;;;;;8.35;4.20;;;-6.40;93.90;;;;;;5023202;28;20119;-92
2021/12/21 12:01:03;;;;;;;6.40;3.85;;;-6.30;93.20;;;;;;5040270;28;20037;-93
2021/12/21 12:03:32;;;;;;;4.53;3.17;;;-6.50;94.10;;;;;;5039519;28;20032;-92
2021/12/21 12:06:07;;;;;;;6.95;4.25;;;-6.50;93.20;;;;;;5039593;28;20379;-92
2021/12/21 12:09:04;;;;;;;4.72;3.28;;;-6.60;94.40;;;;;;5039529;28;20029;-92
2021/12/21 12:11:36;;;;;;;8.10;4.03;;;-6.40;96.10;;;;;;5038989;28;20025;-92
2021/12/21 12:14:10;;;;;;;8.43;4.93;;;-6.50;94.40;;;;;;5057672;28;20055;-92
2021/12/21 12:16:42;;;;;;;7.07;4.40;;;-6.50;95.40;;;;;;5040242;28;20029;-93
2021/12/21 12:19:17;;;;;;;8.55;4.70;;;-6.60;95.30;;;;;;5040304;28;20487;-93
2021/12/21 12:21:59;;;;;;;17.27;7.47;;;-6.60;95.70;;;;;;5024253;28;20078;-93
2021/12/21 12:24:48;;;;;;;10.30;6.47;;;-6.70;95.50;;;;;;5058508;28;20044;-93
2021/12/21 12:27:28;;;;;;;13.43;6.38;;;-6.70;96.60;;;;;;5040369;28;20163;-93
2021/12/21 12:30:01;;;;;;;7.25;4.43;;;-6.50;97.40;;;;;;5051415;28;20028;-90
2021/12/21 12:32:37;;;;;;;6.45;3.20;;;-6.40;96.50;;;;;;5023040;28;20035;-92
2021/12/21 12:35:30;;;;;;;7.70;3.70;;;-6.60;95.00;;;;;;5039329;28;20025;-92
2021/12/21 12:38:19;;;;;;;7.22;4.10;;;-6.70;96.00;;;;;;5041174;28;20128;-93
2021/12/21 12:40:46;;;;;;;23.88;10.52;;;-7.00;95.80;;;;;;5040101;28;20025;-94
2021/12/21 12:43:16;;;;;;;19.88;9.55;;;-7.10;95.90;;;;;;5023298;28;20115;-94
2021/12/21 12:45:50;;;;;;;32.65;12.52;;;-7.20;95.60;;;;;;5004027;28;20040;-93
2021/12/21 12:48:30;;;;;;;22.05;9.65;;;-7.10;96.10;;;;;;5038110;28;20029;-93
2021/12/21 12:50:57;;;;;;;14.07;6.03;;;-7.30;96.10;;;;;;5004033;28;20177;-93
2021/12/21 12:53:47;;;;;;;13.13;6.22;;;-7.40;97.00;;;;;;5020000;28;20025;-93
2021/12/21 12:56:14;;;;;;;15.02;8.90;;;-7.40;96.70;;;;;;5020218;28;20120;-92
2021/12/21 12:58:55;;;;;;;38.08;24.92;;;-7.50;97.20;;;;;;5002550;28;20044;-91
2021/12/21 13:01:26;;;;;;;22.27;15.85;;;-7.60;96.00;;;;;;5019062;28;20176;-91
2021/12/21 13:04:11;;;;;;;9.43;6.07;;;-7.60;96.90;;;;;;5019969;28;20034;-92
2021/12/21 13:06:38;;;;;;;17.67;8.02;;;-7.60;97.40;;;;;;5018775;28;20026;-92
2021/12/21 13:09:07;;;;;;;17.65;6.82;;;-7.60;97.80;;;;;;5035992;28;20483;-92
2021/12/21 13:11:36;;;;;;;28.95;9.70;;;-7.60;97.60;;;;;;5018286;28;20029;-92
2021/12/21 13:14:03;;;;;;;48.60;15.88;;;-7.60;97.80;;;;;;5018662;28;20107;-93
2021/12/21 13:16:32;;;;;;;41.33;12.25;;;-7.60;98.00;;;;;;5018190;28;20017;-93
2021/12/21 13:19:06;;;;;;;20.73;8.70;;;-7.80;98.60;;;;;;5018976;28;20021;-91
2021/12/21 13:21:40;;;;;;;25.25;12.07;;;-7.90;98.00;;;;;;5018002;28;20469;-92
2021/12/21 13:24:11;;;;;;;13.75;7.07;;;-7.90;99.70;;;;;;5019202;28;20033;-93
2021/12/21 13:26:45;;;;;;;16.73;9.02;;;-7.90;99.20;;;;;;5018719;28;20030;-93
2021/12/21 13:29:18;;;;;;;10.52;5.53;;;-8.00;98.90;;;;;;5018871;28;20028;-91
2021/12/21 13:31:44;;;;;;;8.43;5.45;;;-8.00;99.30;;;;;;5019308;28;20438;-93
2021/12/21 13:34:11;;;;;;;9.98;5.43;;;-7.90;99.90;;;;;;5018378;28;20423;-93
2021/12/21 13:36:43;;;;;;;15.45;6.07;;;-8.00;99.70;;;;;;5017948;28;20042;-93
2021/12/21 13:39:20;;;;;;;12.32;6.32;;;-8.10;99.90;;;;;;5002244;28;20051;-94
2021/12/21 13:41:58;;;;;;;6.82;3.95;;;-8.20;99.90;;;;;;5018000;28;20077;-93
2021/12/21 13:44:34;;;;;;;13.00;5.90;;;-8.20;99.90;;;;;;5018418;28;20090;-92
2021/12/21 13:47:04;;;;;;;13.00;5.90;;;-8.30;99.90;;;;;;5018422;28;20026;-92
2021/12/21 13:49:31;;;;;;;16.10;7.57;;;-8.30;99.90;;;;;;5017810;28;20025;-92
2021/12/21 13:52:00;;;;;;;11.45;5.78;;;-8.40;99.90;;;;;;4985917;28;20113;-93
2021/12/21 13:54:28;;;;;;;21.47;9.57;;;-8.50;99.90;;;;;;5001526;28;20129;-92
2021/12/21 13:56:54;;;;;;;15.50;7.60;;;-8.40;99.90;;;;;;5001266;28;20305;-93
2021/12/21 13:59:21;;;;;;;24.33;10.05;;;-8.50;99.90;;;;;;5017636;28;20053;-92
2021/12/21 14:01:52;;;;;;;26.55;10.90;;;-8.50;99.90;;;;;;5018062;28;20021;-93